Kezdőlap
METAR-TAF:

METAR-TAF

Repülőterek :

Islay, Skócia

földrajzi szélesség: 55-40-55N, földrajzi hosszúság: 006-15-24W, magasság: 16 m

Jelenlegi meteorológiai megfigyelések

A jelentés 1 órával és 19 perccel ezelõtt készült, 17:20 UTC
Északi szél 15 kt
Hőmérséklet 11°C
Páratartalom 54%
Légköri nyomás 1024 hPa
Látótávolság 10 km, vagy több
Kevés felhő 3000 lábon

METAR: EGPI 191720Z 35015KT 9999 FEW030 11/02 Q1024

Idő: 19:39 (18:39 UTC)

Előrejelzés

A jelentés 4 órával és 37 perccel ezelõtt készült, 14:02 UTC
Az előrejelzés 19-én 15 óra UTC és 19-én 18 óra UTC között érvényes
Északi szél 12 kt
Látótávolság 10 km, vagy több
Kevés felhő 3000 lábon

TAF: EGPI 191402Z 1915/1918 35012KT 9999 FEW030

Meteorológiai megfigyelések és előrejelzések több, mint 4000 repülőtéren (METAR és TAF jelentéseket).

A térképen piros és sárga pontok jelzik az elérhető meteorológiai állomásokat.

Mozgassa az egeret a pont fölött, hogy megjelenjen az állomás neve.

Azután kattintson az időjárási megfigyelések és előrejelzések megtekintéséhez.

A térkép megváltoztatása: kattintson a fekete keresztel jelölt zöld gombra ráközelítéshez, a vonallal jelölt zöld gombra távolításhoz, vagy a zöld nyilakra a szomszédos térképek eléréséhez.


METAR-TAF: